Time;durP1;ratioP1;P1;durP2;ratioP2;P2;SDS_P1;SDS_P2;PMS_P1;PMS_P2;Temp;Humidity;BMP_temperature;BMP_pressure;BME280_temperature;BME280_humidity;BME280_pressure;Samples;Min_cycle;Max_cycle;Signal;HPM_P1;HPM_P2
2021/12/11 00:00:56;;;;;;;33.88;23.30;;;;;;;-1.57;84.64;95326.97;1753684;80;21051;-81
2021/12/11 00:03:29;;;;;;;35.88;23.80;;;;;;;-1.56;84.79;95328.58;1768426;80;21383;-81
2021/12/11 00:06:03;;;;;;;38.67;24.37;;;;;;;-1.53;84.82;95323.21;1769220;80;21072;-81
2021/12/11 00:08:30;;;;;;;36.98;23.85;;;;;;;-1.53;84.85;95331.66;1754388;80;21521;-81
2021/12/11 00:11:17;;;;;;;37.30;25.00;;;;;;;-1.49;84.98;95336.02;1779453;80;21058;-81
2021/12/11 00:13:43;;;;;;;40.60;24.40;;;;;;;-1.47;84.91;95331.59;1762690;80;21028;-81
2021/12/11 00:16:12;;;;;;;36.23;22.95;;;;;;;-1.44;84.93;95340.27;1765426;80;21472;-80
2021/12/11 00:18:38;;;;;;;34.95;23.25;;;;;;;-1.40;84.99;95344.61;1769432;80;20989;-81
2021/12/11 00:21:11;;;;;;;37.25;23.57;;;;;;;-1.34;84.91;95351.24;1769980;80;21370;-81
2021/12/11 00:23:52;;;;;;;34.30;20.95;;;;;;;-1.27;85.00;95352.80;1756485;80;21126;-80
2021/12/11 00:26:35;;;;;;;41.10;22.05;;;;;;;-1.21;84.88;95357.35;1746658;80;21154;-81
2021/12/11 00:29:02;;;;;;;40.75;24.40;;;;;;;-1.20;84.68;95364.05;1770816;80;21043;-80
2021/12/11 00:31:28;;;;;;;39.98;24.02;;;;;;;-1.25;84.28;95371.31;1759089;80;21137;-81
2021/12/11 00:33:54;;;;;;;31.55;22.45;;;;;;;-1.29;84.32;95367.42;1759167;80;21126;-81
2021/12/11 00:36:23;;;;;;;34.25;21.10;;;;;;;-1.29;84.34;95376.34;1773581;80;21127;-80
2021/12/11 00:38:49;;;;;;;34.92;21.33;;;;;;;-1.27;84.32;95389.28;1779682;80;21050;-81
2021/12/11 00:41:18;;;;;;;38.98;24.05;;;;;;;-1.33;83.99;95388.53;1763871;80;21394;-81
2021/12/11 00:43:45;;;;;;;32.90;21.02;;;;;;;-1.36;84.02;95389.27;1768824;80;21042;-81
2021/12/11 00:46:24;;;;;;;38.10;22.10;;;;;;;-1.38;83.99;95385.58;1770034;80;21016;-81
2021/12/11 00:48:49;;;;;;;38.63;22.45;;;;;;;-1.42;83.84;95392.36;1778757;80;21323;-81
2021/12/11 00:51:18;;;;;;;35.15;23.10;;;;;;;-1.46;83.92;95391.82;1777393;80;21027;-81
2021/12/11 00:53:54;;;;;;;36.55;23.30;;;;;;;-1.49;83.92;95406.08;1758687;80;21031;-81
2021/12/11 00:56:28;;;;;;;34.65;20.88;;;;;;;-1.49;84.09;95409.89;1738704;81;21482;-80
2021/12/11 00:58:56;;;;;;;32.98;20.23;;;;;;;-1.45;84.28;95420.66;1757309;80;21031;-81
2021/12/11 01:01:33;;;;;;;33.18;20.10;;;;;;;-1.45;84.17;95422.73;1748105;80;21047;-81
2021/12/11 01:04:07;;;;;;;30.30;18.02;;;;;;;-1.47;84.15;95423.30;1753567;80;21010;-80
2021/12/11 01:06:38;;;;;;;29.92;17.98;;;;;;;-1.47;84.21;95425.85;1769990;80;20996;-80
2021/12/11 01:09:14;;;;;;;23.20;15.25;;;;;;;-1.44;84.45;95431.98;1780068;80;21067;-80
2021/12/11 01:12:09;;;;;;;27.30;18.95;;;;;;;-1.40;84.48;95437.15;1775249;80;21058;-80
2021/12/11 01:14:54;;;;;;;30.15;17.52;;;;;;;-1.40;84.40;95435.87;1775009;80;21095;-80
2021/12/11 01:17:48;;;;;;;24.82;16.17;;;;;;;-1.37;84.51;95438.16;1754147;80;21008;-80
2021/12/11 01:20:25;;;;;;;31.45;18.62;;;;;;;-1.35;84.45;95439.30;1767928;80;20985;-80
2021/12/11 01:22:51;;;;;;;29.52;17.90;;;;;;;-1.39;84.43;95451.50;1773787;80;21036;-80
2021/12/11 01:25:24;;;;;;;31.10;18.62;;;;;;;-1.40;84.52;95449.08;1760507;80;21000;-80
2021/12/11 01:27:59;;;;;;;27.73;17.90;;;;;;;-1.40;84.56;95454.18;1780264;80;21370;-80
2021/12/11 01:30:33;;;;;;;32.05;18.48;;;;;;;-1.40;84.71;95462.62;1773644;79;21036;-80
2021/12/11 01:33:00;;;;;;;33.23;20.15;;;;;;;-1.33;84.88;95468.00;1775134;80;21072;-80
2021/12/11 01:35:26;;;;;;;29.10;17.77;;;;;;;-1.35;84.77;95464.31;1769521;79;21121;-80
2021/12/11 01:38:16;;;;;;;27.73;17.35;;;;;;;-1.34;84.81;95471.02;1747519;80;21030;-80
2021/12/11 01:40:42;;;;;;;33.15;18.42;;;;;;;-1.28;84.93;95474.80;1769643;80;21043;-80
2021/12/11 01:43:09;;;;;;;35.92;19.02;;;;;;;-1.25;84.83;95468.16;1774227;80;21042;-80
2021/12/11 01:45:37;;;;;;;35.70;22.55;;;;;;;-1.27;84.89;95465.75;1775153;80;21456;-81
2021/12/11 01:48:04;;;;;;;32.20;18.48;;;;;;;-1.27;84.80;95463.67;1770272;80;21437;-80
2021/12/11 01:50:40;;;;;;;32.28;20.32;;;;;;;-1.28;84.81;95462.06;1763409;80;21008;-80
2021/12/11 01:53:14;;;;;;;29.00;17.73;;;;;;;-1.29;84.82;95466.35;1772790;80;21009;-80
2021/12/11 01:55:47;;;;;;;30.90;18.32;;;;;;;-1.30;84.86;95463.47;1767685;80;21477;-81
2021/12/11 01:58:16;;;;;;;30.02;17.15;;;;;;;-1.30;84.92;95458.37;1779617;80;20961;-80
2021/12/11 02:00:50;;;;;;;26.62;18.07;;;;;;;-1.26;85.00;95460.18;1762620;80;21020;-80
2021/12/11 02:03:21;;;;;;;28.67;17.92;;;;;;;-1.25;84.95;95472.79;1772699;80;21028;-80
2021/12/11 02:05:47;;;;;;;21.83;12.97;;;;;;;-1.22;85.07;95469.17;1759919;80;21098;-81
2021/12/11 02:08:16;;;;;;;29.52;17.48;;;;;;;-1.18;85.02;95471.78;1768234;80;21359;-81
2021/12/11 02:10:55;;;;;;;29.98;17.32;;;;;;;-1.15;85.03;95472.79;1759041;80;21414;-81
2021/12/11 02:13:36;;;;;;;27.58;17.50;;;;;;;-1.16;84.87;95469.10;1780026;80;21044;-81
2021/12/11 02:15:53;;;;;;;26.15;16.17;;;;;;;-1.18;84.94;95469.70;1767290;80;21013;-81
2021/12/11 02:18:33;;;;;;;25.80;15.50;;;;;;;-1.19;85.00;95480.84;1766857;80;21023;-80
2021/12/11 02:20:59;;;;;;;23.00;13.95;;;;;;;-1.17;85.03;95476.41;1756154;80;20977;-81
2021/12/11 02:23:25;;;;;;;19.40;12.93;;;;;;;-1.16;85.07;95480.57;1758764;80;21023;-80
2021/12/11 02:25:54;;;;;;;22.48;14.10;;;;;;;-1.16;85.05;95485.67;1769290;80;21101;-81
2021/12/11 02:28:37;;;;;;;15.80;11.68;;;;;;;-1.16;85.03;95490.77;1778628;80;21375;-81
2021/12/11 02:31:32;;;;;;;14.75;11.10;;;;;;;-1.15;85.08;95490.63;1764035;79;21064;-80
2021/12/11 02:34:15;;;;;;;18.17;12.60;;;;;;;-1.15;85.07;95498.28;1754757;80;21051;-80
2021/12/11 02:37:18;;;;;;;17.10;11.22;;;;;;;-1.14;85.11;95509.28;1778904;80;21055;-80
2021/12/11 02:39:50;;;;;;;14.85;11.00;;;;;;;-1.13;85.13;95519.84;1769334;80;21111;-80
2021/12/11 02:42:30;;;;;;;16.40;10.68;;;;;;;-1.13;85.16;95518.10;1769962;80;21506;-80
2021/12/11 02:45:31;;;;;;;17.67;12.37;;;;;;;-1.13;85.14;95527.02;1780095;80;21001;-80
2021/12/11 02:48:11;;;;;;;16.10;10.48;;;;;;;-1.10;85.22;95534.87;1741882;80;21107;-81
2021/12/11 02:50:48;;;;;;;15.53;11.12;;;;;;;-1.12;85.24;95536.75;1748763;80;21016;-81
2021/12/11 02:53:19;;;;;;;15.13;10.23;;;;;;;-1.13;85.18;95542.79;1758911;80;21051;-81
2021/12/11 02:56:00;;;;;;;14.07;9.35;;;;;;;-1.14;85.25;95544.53;1747838;80;21027;-80
2021/12/11 02:58:30;;;;;;;18.12;12.70;;;;;;;-1.15;85.32;95549.27;1776065;80;21012;-81
2021/12/11 03:01:07;;;;;;;21.48;13.25;;;;;;;-1.13;85.39;95553.80;1778794;80;21027;-81
2021/12/11 03:03:39;;;;;;;22.07;13.90;;;;;;;-1.14;85.37;95554.73;1767433;80;21502;-80
2021/12/11 03:06:17;;;;;;;19.87;13.00;;;;;;;-1.12;85.42;95560.97;1760710;80;21076;-81
2021/12/11 03:08:34;;;;;;;21.70;13.10;;;;;;;-1.09;85.52;95561.98;1771333;80;21127;-80
2021/12/11 03:11:05;;;;;;;21.87;13.35;;;;;;;-1.08;85.53;95568.22;1757018;80;21083;-80
2021/12/11 03:13:34;;;;;;;24.80;14.93;;;;;;;-1.04;85.44;95570.84;1750327;79;21032;-80
2021/12/11 03:15:59;;;;;;;21.00;14.13;;;;;;;-1.00;85.46;95565.01;1779277;80;21462;-80
2021/12/11 03:18:27;;;;;;;21.70;14.53;;;;;;;-0.94;85.55;95568.33;1778907;80;21048;-80
2021/12/11 03:20:53;;;;;;;27.22;15.40;;;;;;;-0.89;85.33;95575.11;1779402;80;21031;-81
2021/12/11 03:23:19;;;;;;;25.77;15.32;;;;;;;-0.89;85.16;95568.73;1769751;79;21036;-80
2021/12/11 03:25:45;;;;;;;24.80;16.07;;;;;;;-0.90;85.02;95570.95;1764667;80;21120;-80
2021/12/11 03:28:11;;;;;;;28.62;15.58;;;;;;;-0.92;84.97;95573.63;1763975;80;21102;-80
2021/12/11 03:30:41;;;;;;;22.37;14.63;;;;;;;-0.89;85.04;95576.38;1719938;82;21526;-80
2021/12/11 03:33:12;;;;;;;20.05;13.03;;;;;;;-0.87;84.96;95582.63;1776523;80;21481;-80
2021/12/11 03:35:38;;;;;;;20.20;13.43;;;;;;;-0.88;84.98;95579.27;1764083;80;21063;-80
2021/12/11 03:38:04;;;;;;;20.15;13.65;;;;;;;-0.89;84.89;95578.94;1756754;80;21498;-80
2021/12/11 03:40:30;;;;;;;21.55;13.58;;;;;;;-0.89;84.89;95578.94;1780844;80;20991;-80
2021/12/11 03:42:57;;;;;;;25.27;14.03;;;;;;;-0.85;84.88;95585.84;1775879;80;21003;-80
2021/12/11 03:45:28;;;;;;;20.20;13.15;;;;;;;-0.85;84.80;95584.58;1782623;80;21053;-80
2021/12/11 03:48:11;;;;;;;24.47;15.85;;;;;;;-0.86;84.84;95579.13;1766184;80;21442;-80
2021/12/11 03:50:37;;;;;;;24.23;14.93;;;;;;;-0.84;84.79;95583.16;1759741;80;21059;-80
2021/12/11 03:53:03;;;;;;;26.80;16.35;;;;;;;-0.87;84.62;95597.45;1737760;80;21355;-80
2021/12/11 03:55:34;;;;;;;25.77;15.18;;;;;;;-0.89;84.62;95600.61;1760415;80;21102;-80
2021/12/11 03:58:00;;;;;;;26.70;16.23;;;;;;;-0.92;84.68;95602.16;1706999;83;21159;-80
2021/12/11 04:00:31;;;;;;;27.80;15.93;;;;;;;-0.94;84.75;95599.73;1764459;80;21050;-80
2021/12/11 04:03:03;;;;;;;27.75;17.12;;;;;;;-0.92;84.91;95598.33;1760428;80;21015;-80
2021/12/11 04:05:25;;;;;;;28.83;16.82;;;;;;;-0.92;84.82;95608.06;1778285;80;20976;-80
2021/12/11 04:07:51;;;;;;;33.02;18.25;;;;;;;-0.89;84.93;95603.63;1781435;80;21039;-80
2021/12/11 04:10:18;;;;;;;35.78;19.65;;;;;;;-0.92;84.81;95601.69;1774874;79;21395;-80
2021/12/11 04:12:48;;;;;;;32.90;19.27;;;;;;;-0.93;85.01;95606.45;1776953;80;21019;-80
2021/12/11 04:15:14;;;;;;;31.65;19.05;;;;;;;-0.89;84.97;95615.11;1774466;80;20976;-80
2021/12/11 04:17:40;;;;;;;35.80;20.68;;;;;;;-0.89;84.97;95613.83;1763021;80;21035;-80
2021/12/11 04:20:11;;;;;;;30.10;18.75;;;;;;;-0.89;84.94;95617.66;1762937;80;21089;-80
2021/12/11 04:22:37;;;;;;;34.80;19.45;;;;;;;-0.87;85.05;95618.33;1763553;80;21047;-80
2021/12/11 04:25:06;;;;;;;29.18;19.32;;;;;;;-0.86;84.88;95618.67;1770862;80;21038;-80
2021/12/11 04:27:32;;;;;;;28.10;18.32;;;;;;;-0.86;84.85;95619.94;1776073;80;21074;-80
2021/12/11 04:29:57;;;;;;;31.37;16.85;;;;;;;-0.87;84.80;95625.98;1781562;80;21030;-80
2021/12/11 04:32:25;;;;;;;23.38;15.83;;;;;;;-0.87;84.78;95621.69;1778535;79;20949;-80
2021/12/11 04:34:50;;;;;;;26.95;16.70;;;;;;;-0.89;84.65;95621.02;1768829;80;21369;-80
2021/12/11 04:37:22;;;;;;;23.20;15.98;;;;;;;-0.93;84.53;95623.02;1768783;80;21391;-80
2021/12/11 04:39:56;;;;;;;28.07;18.40;;;;;;;-0.91;84.56;95627.52;1780718;80;20991;-80
2021/12/11 04:45:12;;;;;;;27.77;16.40;;;;;;;-0.90;84.43;95638.53;1747439;81;21020;-80
2021/12/11 04:47:46;;;;;;;24.70;16.87;;;;;;;-0.97;84.15;95642.55;1752741;79;21063;-80
2021/12/11 04:50:17;;;;;;;26.23;17.50;;;;;;;-1.03;84.11;95645.59;1761481;80;21031;-80
2021/12/11 04:52:54;;;;;;;34.18;22.95;;;;;;;-1.10;84.03;95644.50;1779690;80;21019;-80
2021/12/11 05:09:04;;;;;;;46.10;29.60;;;;;;;-1.42;83.78;95648.44;1774816;80;20995;-80
2021/12/11 05:11:09;;;;;;;37.60;22.62;;;;;;;-1.47;83.75;95653.09;1775173;80;21033;-80
2021/12/11 05:13:33;;;;;;;31.42;19.80;;;;;;;-1.48;83.80;95665.02;1758896;80;21007;-80
2021/12/11 05:16:05;;;;;;;21.20;15.25;;;;;;;-1.48;83.79;95653.55;1733285;80;21193;-80
2021/12/11 05:18:32;;;;;;;23.47;14.60;;;;;;;-1.51;83.74;95650.80;1759240;80;21059;-80
2021/12/11 05:21:03;;;;;;;22.48;14.87;;;;;;;-1.58;83.61;95648.89;1780193;80;21091;-80
2021/12/11 05:23:28;;;;;;;18.32;11.80;;;;;;;-1.59;83.56;95665.11;1779057;80;21003;-80
2021/12/11 05:25:54;;;;;;;15.45;11.70;;;;;;;-1.64;83.53;95664.19;1779101;80;21083;-80
2021/12/11 05:28:20;;;;;;;13.95;9.68;;;;;;;-1.68;83.58;95669.20;1750509;80;21043;-80
2021/12/11 05:30:49;;;;;;;11.97;9.05;;;;;;;-1.68;83.68;95667.11;1756548;79;21465;-82
2021/12/11 05:33:16;;;;;;;13.70;8.70;;;;;;;-1.70;83.73;95668.98;1770809;80;20988;-80
2021/12/11 05:35:42;;;;;;;12.98;8.55;;;;;;;-1.73;83.64;95667.49;1770646;80;21024;-80
2021/12/11 05:38:10;;;;;;;10.13;7.20;;;;;;;-1.78;83.60;95675.17;1777816;80;21008;-80
2021/12/11 05:40:39;;;;;;;12.13;6.72;;;;;;;-1.79;83.68;95679.89;1780954;79;21098;-80
2021/12/11 05:43:06;;;;;;;8.98;6.92;;;;;;;-1.82;83.78;95679.22;1759321;80;21008;-80
2021/12/11 05:45:32;;;;;;;13.58;7.45;;;;;;;-1.81;83.89;95680.02;1758936;80;21151;-80
2021/12/11 05:47:58;;;;;;;8.98;6.60;;;;;;;-1.80;84.02;95682.91;1748590;80;21038;-80
2021/12/11 05:50:29;;;;;;;7.00;6.10;;;;;;;-1.78;84.12;95681.54;1765493;80;21039;-80
2021/12/11 05:52:55;;;;;;;10.78;7.15;;;;;;;-1.74;84.25;95681.63;1779847;80;21375;-80
2021/12/11 05:55:21;;;;;;;8.63;6.25;;;;;;;-1.71;84.43;95687.28;1769485;80;21004;-81
2021/12/11 05:57:52;;;;;;;7.90;6.25;;;;;;;-1.67;84.52;95683.55;1764182;79;21003;-80
2021/12/11 06:00:16;;;;;;;8.00;6.03;;;;;;;-1.64;84.54;95680.74;1778576;80;21032;-80
2021/12/11 06:02:41;;;;;;;6.83;6.12;;;;;;;-1.63;84.64;95691.30;1774343;80;21012;-80
2021/12/11 06:05:07;;;;;;;8.68;6.60;;;;;;;-1.61;84.64;95680.98;1762959;80;21054;-80
2021/12/11 06:07:33;;;;;;;9.50;6.60;;;;;;;-1.62;84.53;95687.02;1748666;80;21123;-80
2021/12/11 06:10:07;;;;;;;10.23;6.50;;;;;;;-1.63;84.63;95689.19;1748273;80;21549;-80
2021/12/11 06:12:33;;;;;;;7.80;6.20;;;;;;;-1.63;84.64;95691.73;1772304;80;21049;-80
2021/12/11 06:14:59;;;;;;;9.83;6.87;;;;;;;-1.63;84.63;95691.73;1759188;80;21553;-80
2021/12/11 06:17:28;;;;;;;8.48;6.83;;;;;;;-1.63;84.68;95700.22;1774581;80;21047;-80
2021/12/11 06:19:54;;;;;;;8.33;7.00;;;;;;;-1.60;84.72;95708.08;1749765;80;21070;-80
2021/12/11 06:22:24;;;;;;;8.03;7.10;;;;;;;-1.59;84.85;95713.05;1754274;80;21031;-80
2021/12/11 06:24:51;;;;;;;11.70;8.23;;;;;;;-1.55;84.99;95714.88;1774542;80;21138;-80
2021/12/11 06:27:16;;;;;;;10.95;9.53;;;;;;;-1.48;85.09;95710.88;1774387;79;21167;-80
2021/12/11 06:29:43;;;;;;;11.50;7.42;;;;;;;-1.45;85.02;95713.67;1778837;80;21071;-80
2021/12/11 06:32:09;;;;;;;7.50;6.42;;;;;;;-1.45;84.99;95719.58;1769562;80;21150;-80
2021/12/11 06:34:36;;;;;;;8.53;6.40;;;;;;;-1.43;85.04;95728.38;1774857;80;21103;-80
2021/12/11 06:37:06;;;;;;;9.40;6.45;;;;;;;-1.42;85.11;95734.61;1779835;80;21087;-80
2021/12/11 06:39:32;;;;;;;9.80;7.70;;;;;;;-1.39;85.28;95742.47;1779347;80;21422;-80
2021/12/11 06:42:01;;;;;;;8.73;6.15;;;;;;;-1.33;85.29;95743.23;1757948;80;21012;-80
2021/12/11 06:44:28;;;;;;;8.33;6.83;;;;;;;-1.30;85.24;95739.19;1760964;80;21059;-80
2021/12/11 06:46:58;;;;;;;8.88;6.40;;;;;;;-1.27;85.31;95741.48;1777977;80;21031;-80
2021/12/11 06:49:29;;;;;;;8.20;6.60;;;;;;;-1.24;85.37;95752.70;1776851;80;21060;-81
2021/12/11 06:51:55;;;;;;;8.93;6.75;;;;;;;-1.21;85.39;95746.88;1771319;80;21050;-80
2021/12/11 06:54:21;;;;;;;10.98;8.45;;;;;;;-1.15;85.40;95757.03;1774690;80;20987;-80
2021/12/11 06:56:48;;;;;;;15.13;9.58;;;;;;;-1.12;85.40;95761.91;1779142;80;21131;-80
2021/12/11 06:59:14;;;;;;;20.45;11.10;;;;;;;-1.10;85.42;95770.23;1780039;80;21064;-80
2021/12/11 07:01:41;;;;;;;13.88;10.15;;;;;;;-1.06;85.47;95780.98;1779479;80;20992;-80
2021/12/11 07:04:07;;;;;;;15.43;11.18;;;;;;;-1.02;85.52;95784.43;1756222;80;21035;-80
2021/12/11 07:06:34;;;;;;;13.30;10.00;;;;;;;-0.97;85.55;95786.63;1739212;82;20975;-80
2021/12/11 07:09:01;;;;;;;13.55;10.68;;;;;;;-0.93;85.59;95788.79;1735933;82;21055;-80
2021/12/11 07:11:27;;;;;;;13.90;9.93;;;;;;;-0.87;85.57;95795.59;1726394;82;21103;-80
2021/12/11 07:13:53;;;;;;;12.33;9.03;;;;;;;-0.80;85.66;95799.27;1744784;82;20975;-80
2021/12/11 07:16:19;;;;;;;14.13;9.03;;;;;;;-0.70;85.88;95803.47;1750267;82;21047;-80
2021/12/11 07:18:45;;;;;;;10.65;8.40;;;;;;;-0.57;85.87;95807.09;1750535;82;21063;-80
2021/12/11 07:21:11;;;;;;;10.28;8.23;;;;;;;-0.46;85.83;95810.85;1750265;82;20991;-80
2021/12/11 07:23:41;;;;;;;13.05;8.58;;;;;;;-0.38;85.64;95803.81;1720629;82;21141;-80
2021/12/11 07:26:13;;;;;;;13.62;8.65;;;;;;;-0.28;85.64;95820.46;1728722;82;21402;-80
2021/12/11 07:28:36;;;;;;;11.60;8.08;;;;;;;-0.24;85.36;95817.98;1744536;82;21430;-80
2021/12/11 07:31:02;;;;;;;9.23;8.13;;;;;;;-0.20;85.29;95820.14;1740254;82;21048;-81
2021/12/11 07:33:28;;;;;;;11.93;9.10;;;;;;;-0.12;85.38;95821.59;1749877;82;21027;-80
2021/12/11 07:35:54;;;;;;;13.15;9.58;;;;;;;-0.02;85.28;95826.71;1749475;82;21425;-80
2021/12/11 07:38:20;;;;;;;11.15;8.53;;;;;;;0.03;85.20;95830.17;1742400;82;21002;-80
2021/12/11 07:40:51;;;;;;;12.15;9.08;;;;;;;0.09;85.15;95827.89;1725283;82;20992;-80
2021/12/11 07:43:17;;;;;;;11.45;8.98;;;;;;;0.12;85.05;95827.62;1747343;80;21079;-80
2021/12/11 07:45:44;;;;;;;15.08;10.08;;;;;;;0.18;85.07;95837.34;1720317;82;21067;-80
2021/12/11 07:48:09;;;;;;;11.65;8.83;;;;;;;0.23;85.01;95838.22;1720325;82;21034;-80
2021/12/11 07:50:35;;;;;;;11.80;8.90;;;;;;;0.27;84.89;95855.70;1725750;82;21022;-80
2021/12/11 07:53:01;;;;;;;13.65;10.20;;;;;;;0.34;84.90;95866.70;1740892;80;21465;-80
2021/12/11 07:55:27;;;;;;;10.25;8.85;;;;;;;0.39;84.70;95866.62;1730126;82;21054;-80
2021/12/11 07:57:53;;;;;;;14.15;11.15;;;;;;;0.46;84.68;95872.82;1733690;82;21054;-80
2021/12/11 08:00:23;;;;;;;13.18;9.73;;;;;;;0.51;84.14;95873.25;1735896;82;21090;-80
2021/12/11 08:02:49;;;;;;;18.67;12.78;;;;;;;0.60;84.34;95872.91;1741243;82;21169;-80
2021/12/11 08:05:14;;;;;;;16.77;11.73;;;;;;;0.65;83.95;95877.63;1725173;82;21040;-80
2021/12/11 08:07:40;;;;;;;18.17;12.33;;;;;;;0.68;83.43;95872.27;1717805;82;21142;-80
2021/12/11 08:10:09;;;;;;;19.73;13.38;;;;;;;0.76;83.85;95877.03;1744587;82;21572;-80
2021/12/11 08:12:35;;;;;;;17.62;10.93;;;;;;;0.88;84.02;95878.53;1750286;82;20972;-80
2021/12/11 08:15:01;;;;;;;16.05;11.00;;;;;;;0.97;83.87;95877.37;1750911;82;21019;-80
2021/12/11 08:17:27;;;;;;;18.20;12.10;;;;;;;1.05;83.89;95881.36;1745978;82;21041;-80
2021/12/11 08:19:54;;;;;;;15.72;11.53;;;;;;;1.11;83.79;95888.48;1744991;82;21426;-80
2021/12/11 08:22:21;;;;;;;14.98;10.93;;;;;;;1.17;83.56;95897.72;1720143;82;21091;-80
2021/12/11 08:24:47;;;;;;;18.07;12.45;;;;;;;1.20;83.15;95916.64;1731457;82;21015;-80
2021/12/11 08:27:18;;;;;;;16.65;12.37;;;;;;;1.24;82.60;95916.36;1734765;82;21110;-80
2021/12/11 08:29:46;;;;;;;14.63;11.03;;;;;;;1.29;82.22;95919.31;1735487;81;21103;-80
2021/12/11 08:32:12;;;;;;;18.62;12.28;;;;;;;1.32;81.57;95922.91;1745856;82;21154;-80
2021/12/11 08:34:37;;;;;;;15.98;11.65;;;;;;;1.35;81.35;95931.12;1748702;82;21071;-80
2021/12/11 08:37:05;;;;;;;15.48;11.03;;;;;;;1.39;81.65;95947.81;1742221;82;21430;-80
2021/12/11 08:39:31;;;;;;;16.45;11.40;;;;;;;1.41;81.34;95954.08;1749531;82;21102;-80
2021/12/11 08:41:58;;;;;;;15.05;11.03;;;;;;;1.48;81.58;95953.41;1743279;82;21067;-80
2021/12/11 08:44:24;;;;;;;14.90;11.48;;;;;;;1.55;81.81;95956.70;1732891;82;21122;-80
2021/12/11 08:46:57;;;;;;;14.30;11.08;;;;;;;1.55;81.24;95963.09;1744199;82;21110;-80
2021/12/11 08:49:28;;;;;;;15.15;11.08;;;;;;;1.54;81.15;95973.01;1742324;82;21417;-80
2021/12/11 08:51:58;;;;;;;15.50;11.28;;;;;;;1.53;81.69;95977.32;1764748;80;21040;-81
2021/12/11 08:54:25;;;;;;;16.15;11.63;;;;;;;1.57;82.00;95974.81;1774704;80;21039;-80
2021/12/11 08:56:51;;;;;;;15.43;10.40;;;;;;;1.60;81.54;95981.41;1781129;80;22067;-80
2021/12/11 08:59:19;;;;;;;12.82;9.98;;;;;;;1.66;81.39;95974.48;1781284;80;21430;-80
2021/12/11 09:02:09;;;;;;;16.02;11.22;;;;;;;1.76;81.71;95981.20;1780040;80;21007;-80
2021/12/11 09:04:55;;;;;;;15.20;10.78;;;;;;;1.86;81.58;95985.03;1780510;80;21418;-81
2021/12/11 09:07:31;;;;;;;14.53;9.63;;;;;;;1.93;81.18;95987.84;1776686;80;21027;-80
2021/12/11 09:10:12;;;;;;;15.25;10.90;;;;;;;1.96;80.56;95987.12;1774352;80;21074;-80
2021/12/11 09:12:43;;;;;;;15.05;11.73;;;;;;;2.07;80.76;95995.91;1760530;80;21409;-80
2021/12/11 09:15:29;;;;;;;15.38;11.40;;;;;;;2.16;80.42;96005.81;1771179;80;20976;-81
2021/12/11 09:18:00;;;;;;;18.50;12.78;;;;;;;2.22;80.46;96004.44;1765412;80;21003;-80
2021/12/11 09:20:41;;;;;;;15.77;10.73;;;;;;;2.26;80.48;96014.74;1774690;80;21456;-80
2021/12/11 09:23:16;;;;;;;12.35;9.53;;;;;;;2.28;80.13;96018.00;1748791;80;22233;-80
2021/12/11 09:25:48;;;;;;;13.13;10.10;;;;;;;2.27;79.37;96019.73;1757924;80;22008;-80
2021/12/11 09:28:29;;;;;;;13.05;10.23;;;;;;;2.29;79.10;96019.62;1780429;80;21446;-80
2021/12/11 09:31:18;;;;;;;12.65;9.50;;;;;;;2.28;78.45;96021.38;1749203;82;21421;-80
2021/12/11 09:33:52;;;;;;;15.13;11.93;;;;;;;2.29;79.00;96022.98;1719091;82;21081;-81
2021/12/11 09:36:33;;;;;;;25.72;17.60;;;;;;;2.37;78.67;96029.49;1774493;79;21063;-80
2021/12/11 09:39:22;;;;;;;25.77;18.30;;;;;;;2.46;78.36;96019.36;1765629;80;21115;-80
2021/12/11 09:41:48;;;;;;;22.48;16.60;;;;;;;2.52;77.85;96020.06;1780934;80;21023;-80
2021/12/11 09:44:24;;;;;;;20.50;13.58;;;;;;;2.56;77.74;96035.03;1749921;80;21588;-80
2021/12/11 09:47:00;;;;;;;18.57;14.28;;;;;;;2.61;77.26;96041.04;1778305;80;21403;-80
2021/12/11 09:49:31;;;;;;;16.37;12.25;;;;;;;2.59;77.45;96051.41;1775813;80;21094;-80
2021/12/11 09:52:14;;;;;;;17.67;12.93;;;;;;;2.63;77.27;96050.20;1776471;79;21079;-80
2021/12/11 09:54:32;;;;;;;14.83;11.43;;;;;;;2.67;77.01;96050.25;1763484;80;21004;-80
2021/12/11 09:57:06;;;;;;;15.60;12.25;;;;;;;2.61;76.25;96061.09;1762936;80;21054;-80
2021/12/11 09:59:35;;;;;;;15.63;11.90;;;;;;;2.59;76.27;96061.67;1749651;80;20964;-80
2021/12/11 10:02:05;;;;;;;14.90;10.48;;;;;;;2.59;76.58;96058.30;1765510;80;21418;-80
2021/12/11 10:04:40;;;;;;;15.40;10.75;;;;;;;2.63;76.04;96065.59;1772868;80;21037;-80
2021/12/11 10:07:30;;;;;;;14.45;10.98;;;;;;;2.59;75.82;96069.37;1765058;80;21051;-80
2021/12/11 10:09:57;;;;;;;16.40;12.15;;;;;;;2.51;75.76;96076.16;1760233;80;21011;-80
2021/12/11 10:12:27;;;;;;;16.70;11.60;;;;;;;2.55;75.79;96077.02;1780011;80;21382;-80
2021/12/11 10:15:22;;;;;;;17.85;12.07;;;;;;;2.54;75.63;96066.90;1780546;80;21008;-80
2021/12/11 10:18:05;;;;;;;21.10;13.65;;;;;;;2.52;76.24;96079.87;1770713;80;21110;-80
2021/12/11 10:20:49;;;;;;;27.62;17.62;;;;;;;2.58;76.01;96074.64;1781539;80;21015;-80
2021/12/11 10:23:19;;;;;;;29.25;18.32;;;;;;;2.59;76.30;96078.34;1766668;80;21055;-80
2021/12/11 10:25:45;;;;;;;28.95;18.73;;;;;;;2.64;76.12;96080.04;1765313;80;21051;-80
2021/12/11 10:28:13;;;;;;;27.50;18.25;;;;;;;2.67;75.73;96080.23;1764630;80;21759;-80
2021/12/11 10:30:44;;;;;;;29.42;20.12;;;;;;;2.69;75.94;96082.17;1749596;80;21015;-80
2021/12/11 10:33:12;;;;;;;31.10;22.17;;;;;;;2.74;76.34;96080.46;1756222;80;21035;-80
2021/12/11 10:35:39;;;;;;;27.40;18.27;;;;;;;2.78;75.79;96089.05;1754349;80;21016;-80
2021/12/11 10:38:06;;;;;;;26.93;18.67;;;;;;;2.79;75.83;96090.66;1774759;80;21389;-80
2021/12/11 10:40:40;;;;;;;24.25;17.02;;;;;;;2.78;75.82;96087.77;1780889;80;21146;-80
2021/12/11 10:43:11;;;;;;;25.23;18.23;;;;;;;2.80;75.63;96090.19;1778751;80;21409;-80
2021/12/11 10:45:37;;;;;;;29.98;19.82;;;;;;;2.75;74.54;96097.47;1767082;80;21055;-79
2021/12/11 10:48:08;;;;;;;28.23;18.73;;;;;;;2.71;74.78;96095.19;1767116;80;21363;-80
2021/12/11 10:50:39;;;;;;;30.10;20.00;;;;;;;2.73;74.41;96092.96;1748949;80;21434;-80
2021/12/11 10:53:08;;;;;;;24.63;17.82;;;;;;;2.75;75.02;96089.78;1769928;80;21089;-79
2021/12/11 10:55:34;;;;;;;25.62;17.52;;;;;;;2.80;75.36;96096.13;1781233;80;21142;-79
2021/12/11 10:58:04;;;;;;;28.25;18.17;;;;;;;2.84;75.33;96087.19;1781229;80;21043;-80
2021/12/11 11:00:41;;;;;;;27.25;17.17;;;;;;;2.86;75.31;96096.83;1779445;80;21035;-80
2021/12/11 11:03:07;;;;;;;29.55;19.32;;;;;;;2.88;74.90;96098.78;1758037;80;21417;-79
2021/12/11 11:05:33;;;;;;;28.27;18.15;;;;;;;2.80;74.37;96108.14;1775928;80;21003;-79
2021/12/11 11:07:59;;;;;;;27.67;18.05;;;;;;;2.77;73.91;96109.71;1775027;80;21050;-79
2021/12/11 11:10:32;;;;;;;25.40;16.27;;;;;;;2.65;73.22;96116.76;1760482;80;21011;-80
2021/12/11 11:12:58;;;;;;;25.52;17.75;;;;;;;2.51;72.86;96120.56;1770707;80;21031;-80
2021/12/11 11:15:25;;;;;;;27.55;18.42;;;;;;;2.41;73.59;96118.48;1775821;80;21030;-79
2021/12/11 11:17:51;;;;;;;28.75;19.90;;;;;;;2.37;73.80;96125.64;1780855;80;22086;-80
2021/12/11 11:20:22;;;;;;;26.87;20.25;;;;;;;2.43;74.12;96122.19;1777651;80;21075;-80
2021/12/11 11:22:49;;;;;;;28.10;20.48;;;;;;;2.50;74.43;96118.14;1757750;80;20992;-79
2021/12/11 11:25:23;;;;;;;27.95;19.45;;;;;;;2.58;74.27;96120.81;1780153;80;21145;-79
2021/12/11 11:27:54;;;;;;;26.40;17.85;;;;;;;2.61;74.14;96117.52;1761125;80;21070;-80
2021/12/11 11:30:22;;;;;;;20.67;14.23;;;;;;;2.60;74.09;96120.20;1771304;80;21027;-80
2021/12/11 11:32:48;;;;;;;22.70;16.82;;;;;;;2.52;74.29;96126.50;1771020;80;21719;-79
2021/12/11 11:35:18;;;;;;;26.48;18.55;;;;;;;2.45;73.64;96139.55;1775704;80;21003;-79
2021/12/11 11:37:47;;;;;;;25.65;19.05;;;;;;;2.41;73.71;96143.66;1763833;80;21020;-79
2021/12/11 11:40:18;;;;;;;28.15;18.15;;;;;;;2.44;73.94;96147.72;1758131;80;21066;-80
2021/12/11 11:42:44;;;;;;;25.85;17.37;;;;;;;2.47;74.16;96152.57;1764522;80;21008;-80
2021/12/11 11:45:11;;;;;;;28.35;19.52;;;;;;;2.41;73.52;96155.19;1771098;79;22360;-80
2021/12/11 11:47:37;;;;;;;28.92;19.55;;;;;;;2.31;73.38;96153.13;1760209;80;21129;-80
2021/12/11 11:50:06;;;;;;;30.60;22.22;;;;;;;2.14;73.25;96152.53;1759811;79;21068;-80
2021/12/11 11:52:32;;;;;;;36.13;24.25;;;;;;;2.08;73.58;96155.61;1754448;79;21031;-79